createdAt,value
2023-02-08T00:01:49.778Z,54.30
2023-02-08T00:03:51.650Z,54.50
2023-02-08T00:05:53.426Z,54.50
2023-02-08T00:07:55.036Z,54.50
2023-02-08T00:09:56.668Z,54.50
2023-02-08T00:11:58.295Z,54.30
2023-02-08T00:13:59.922Z,54.30
2023-02-08T00:16:01.635Z,54.50
2023-02-08T00:18:03.326Z,54.20
2023-02-08T00:20:05.194Z,54.30
2023-02-08T00:22:06.866Z,54.40
2023-02-08T00:24:08.541Z,54.30
2023-02-08T00:26:10.454Z,54.30
2023-02-08T00:28:13.555Z,54.30
2023-02-08T00:30:16.495Z,54.20
2023-02-08T00:32:18.156Z,54.30
2023-02-08T00:34:19.782Z,54.20
2023-02-08T00:36:21.441Z,54.40
2023-02-08T00:38:23.055Z,54.30
2023-02-08T00:40:24.979Z,54.30
2023-02-08T00:42:26.780Z,54.20
2023-02-08T00:44:28.467Z,54.10
2023-02-08T00:46:30.235Z,54.20
2023-02-08T00:48:32.548Z,54.30
2023-02-08T00:50:34.253Z,54.50
2023-02-08T00:52:35.913Z,54.50
2023-02-08T00:54:38.543Z,54.50
2023-02-08T00:56:40.185Z,54.50
2023-02-08T00:58:42.389Z,54.60
2023-02-08T01:00:44.277Z,53.90
2023-02-08T01:02:45.961Z,54.10
2023-02-08T01:04:47.685Z,54.30
2023-02-08T01:06:49.390Z,54.30
2023-02-08T01:08:51.051Z,54.30
2023-02-08T01:10:53.231Z,54.50
2023-02-08T01:12:56.620Z,54.60
2023-02-08T01:14:58.283Z,54.60
2023-02-08T01:16:59.895Z,54.70
2023-02-08T01:19:02.670Z,54.80
2023-02-08T01:21:05.764Z,54.80
2023-02-08T01:23:07.459Z,54.90
2023-02-08T01:25:09.155Z,54.90
2023-02-08T01:27:11.383Z,54.90
2023-02-08T01:29:13.074Z,54.90
2023-02-08T01:31:16.513Z,54.70
2023-02-08T01:33:18.158Z,54.90
2023-02-08T01:35:19.894Z,54.90
2023-02-08T01:37:21.606Z,55.00
2023-02-08T01:39:23.298Z,55.00
2023-02-08T01:41:31.553Z,54.90
2023-02-08T01:43:34.907Z,54.90
2023-02-08T01:45:36.624Z,55.00
2023-02-08T01:47:38.568Z,55.10
2023-02-08T01:49:40.344Z,55.10
2023-02-08T01:51:50.061Z,55.10
2023-02-08T01:53:52.432Z,55.20
2023-02-08T01:55:57.089Z,55.10
2023-02-08T01:58:01.322Z,55.20
2023-02-08T02:00:23.313Z,55.20
2023-02-08T02:02:25.500Z,55.30
2023-02-08T02:04:28.581Z,55.30
2023-02-08T02:06:33.280Z,55.40
2023-02-08T02:08:34.939Z,55.40
2023-02-08T02:10:38.103Z,55.40
2023-02-08T02:12:41.414Z,55.20
2023-02-08T02:14:43.530Z,55.10
2023-02-08T02:16:46.820Z,55.30
2023-02-08T02:18:48.637Z,55.40
2023-02-08T02:20:54.136Z,55.40
2023-02-08T02:23:04.285Z,55.50
2023-02-08T02:25:21.196Z,55.40
2023-02-08T02:27:26.265Z,55.40
2023-02-08T02:29:46.299Z,55.60
2023-02-08T02:31:54.305Z,55.60
2023-02-08T02:33:55.923Z,56.20
2023-02-08T02:36:00.989Z,55.60
2023-02-08T02:38:08.889Z,55.60
2023-02-08T02:40:14.041Z,55.60
2023-02-08T02:42:37.915Z,55.50
2023-02-08T02:44:52.257Z,55.60
2023-02-08T02:47:01.200Z,55.80
2023-02-08T02:49:02.813Z,55.70
2023-02-08T02:51:23.282Z,55.60
2023-02-08T02:53:29.366Z,55.60
2023-02-08T02:55:33.738Z,55.60
2023-02-08T02:57:35.698Z,55.60
2023-02-08T02:59:38.416Z,55.70
2023-02-08T03:01:40.256Z,55.70
2023-02-08T03:03:42.019Z,55.70
2023-02-08T03:05:43.654Z,55.80
2023-02-08T03:08:04.091Z,55.80
2023-02-08T03:10:17.890Z,55.80
2023-02-08T03:12:29.948Z,55.80
2023-02-08T03:14:41.811Z,55.80
2023-02-08T03:17:09.782Z,55.80
2023-02-08T03:19:31.109Z,55.80
2023-02-08T03:21:37.839Z,55.80
2023-02-08T03:23:55.756Z,55.90
2023-02-08T03:26:05.559Z,56.00
2023-02-08T03:28:20.524Z,56.10
2023-02-08T03:30:26.089Z,56.10
2023-02-08T03:32:40.023Z,56.00
2023-02-08T03:34:41.694Z,56.00
2023-02-08T03:36:48.589Z,56.00
2023-02-08T03:38:51.083Z,55.90
2023-02-08T03:40:54.719Z,56.00
2023-02-08T03:42:58.150Z,55.90
2023-02-08T03:45:05.625Z,55.90
2023-02-08T03:47:09.891Z,55.90
2023-02-08T03:49:14.825Z,55.70
2023-02-08T03:51:16.785Z,55.80
2023-02-08T03:53:20.571Z,55.80
2023-02-08T03:55:24.700Z,55.80
2023-02-08T03:57:28.373Z,56.00
2023-02-08T03:59:32.496Z,56.10
2023-02-08T04:01:38.769Z,56.10
2023-02-08T04:03:41.234Z,56.10
2023-02-08T04:05:42.948Z,56.10
2023-02-08T04:07:44.575Z,56.10
2023-02-08T04:09:46.673Z,56.00
2023-02-08T04:11:48.304Z,55.90
2023-02-08T04:13:49.949Z,55.90
2023-02-08T04:15:51.600Z,55.90
2023-02-08T04:17:54.959Z,56.00
2023-02-08T04:19:56.582Z,56.00
2023-02-08T04:21:58.279Z,56.00
2023-02-08T04:24:00.697Z,56.10
2023-02-08T04:26:02.418Z,56.20
2023-02-08T04:28:04.116Z,56.00
2023-02-08T04:30:05.966Z,55.90
2023-02-08T04:32:11.545Z,56.10
2023-02-08T04:34:13.193Z,56.10
2023-02-08T04:36:14.891Z,56.10
2023-02-08T04:38:16.524Z,56.00
2023-02-08T04:40:18.184Z,56.10
2023-02-08T04:42:19.844Z,56.20
2023-02-08T04:44:21.468Z,56.30
2023-02-08T04:46:23.122Z,56.20
2023-02-08T04:48:24.799Z,56.10
2023-02-08T04:50:26.501Z,56.10
2023-02-08T04:52:28.267Z,56.10
2023-02-08T04:54:29.969Z,56.10
2023-02-08T04:56:31.618Z,56.00
2023-02-08T04:58:34.184Z,56.10
2023-02-08T05:00:35.900Z,56.70
2023-02-08T05:02:37.558Z,56.00
2023-02-08T05:04:39.214Z,56.20
2023-02-08T05:06:40.928Z,56.10
2023-02-08T05:08:42.592Z,56.10
2023-02-08T05:10:45.166Z,56.10
2023-02-08T05:12:46.915Z,56.00
2023-02-08T05:14:48.685Z,56.10
2023-02-08T05:16:50.337Z,56.00
2023-02-08T05:18:51.978Z,56.10
2023-02-08T05:20:54.697Z,56.10
2023-02-08T05:22:56.294Z,56.10
2023-02-08T05:24:57.938Z,56.10
2023-02-08T05:26:59.596Z,56.10
2023-02-08T05:29:04.152Z,56.20
2023-02-08T05:31:11.918Z,56.10
2023-02-08T05:33:13.598Z,56.00
2023-02-08T05:35:15.210Z,56.10
2023-02-08T05:37:16.866Z,56.10
2023-02-08T05:39:18.612Z,56.10
2023-02-08T05:41:20.269Z,56.00
2023-02-08T05:43:21.945Z,56.10
2023-02-08T05:45:23.560Z,55.90
2023-02-08T05:47:25.691Z,56.00
2023-02-08T05:49:27.329Z,56.00
2023-02-08T05:51:29.041Z,56.00
2023-02-08T05:53:31.010Z,56.10
2023-02-08T05:55:32.620Z,56.10
2023-02-08T05:57:35.731Z,56.10
2023-02-08T05:59:37.486Z,55.90
2023-02-08T06:01:39.889Z,55.90
2023-02-08T06:03:41.679Z,56.10
2023-02-08T06:05:43.531Z,56.10
2023-02-08T06:07:45.178Z,56.20
2023-02-08T06:09:48.526Z,56.20
2023-02-08T06:11:50.277Z,56.10
2023-02-08T06:13:51.925Z,56.00
2023-02-08T06:15:53.600Z,56.10
2023-02-08T06:17:55.367Z,56.10
2023-02-08T06:19:57.032Z,56.00
2023-02-08T06:21:58.790Z,56.80
2023-02-08T06:24:00.533Z,56.00
2023-02-08T06:26:02.218Z,56.10
2023-02-08T06:28:04.098Z,56.00
2023-02-08T06:30:06.015Z,56.00
2023-02-08T06:32:07.737Z,56.70
2023-02-08T06:34:09.411Z,55.90
2023-02-08T06:36:11.029Z,55.90
2023-02-08T06:38:12.954Z,55.80
2023-02-08T06:40:14.557Z,55.90
2023-02-08T06:42:16.267Z,55.80
2023-02-08T06:44:18.061Z,55.80
2023-02-08T06:46:19.667Z,55.80
2023-02-08T06:48:21.286Z,55.70
2023-02-08T06:50:24.193Z,55.70
2023-02-08T06:52:26.097Z,55.90
2023-02-08T06:54:27.765Z,55.70
2023-02-08T06:56:29.416Z,55.80
2023-02-08T06:58:31.134Z,55.70
2023-02-08T07:00:32.900Z,55.80
2023-02-08T07:02:34.597Z,55.50
2023-02-08T07:04:36.286Z,55.60
2023-02-08T07:06:37.972Z,55.60
2023-02-08T07:08:39.820Z,55.70
2023-02-08T07:10:41.786Z,55.40
2023-02-08T07:12:43.991Z,55.50
2023-02-08T07:14:45.616Z,55.70
2023-02-08T07:16:47.269Z,55.70
2023-02-08T07:18:49.078Z,55.50
2023-02-08T07:20:50.699Z,55.50
2023-02-08T07:22:52.314Z,55.50
2023-02-08T07:24:54.986Z,55.60
2023-02-08T07:26:56.734Z,55.40
2023-02-08T07:28:58.765Z,55.50
2023-02-08T07:31:00.539Z,55.40
2023-02-08T07:33:02.272Z,55.50
2023-02-08T07:35:03.997Z,55.40
2023-02-08T07:37:05.802Z,55.50
2023-02-08T07:39:07.494Z,55.60
2023-02-08T07:41:11.170Z,55.40
2023-02-08T07:43:12.864Z,55.40
2023-02-08T07:45:23.534Z,55.40
2023-02-08T07:47:25.225Z,55.30
2023-02-08T07:49:26.878Z,55.40
2023-02-08T07:51:28.565Z,55.40
2023-02-08T07:53:30.785Z,55.40
2023-02-08T07:55:32.418Z,55.40
2023-02-08T07:57:34.085Z,55.40
2023-02-08T07:59:35.758Z,55.30
2023-02-08T08:01:37.479Z,55.00
2023-02-08T08:03:39.179Z,55.10
2023-02-08T08:05:41.555Z,55.20
2023-02-08T08:07:43.198Z,54.90
2023-02-08T08:09:44.856Z,55.00
2023-02-08T08:11:46.554Z,54.60
2023-02-08T08:13:48.317Z,54.90
2023-02-08T08:15:50.050Z,55.10
2023-02-08T08:17:51.736Z,54.90
2023-02-08T08:19:53.418Z,54.90
2023-02-08T08:21:55.151Z,54.80
2023-02-08T08:23:56.976Z,55.00
2023-02-08T08:25:59.221Z,54.80
2023-02-08T08:28:01.740Z,54.80
2023-02-08T08:30:04.388Z,54.70
2023-02-08T08:32:06.857Z,54.80
2023-02-08T08:34:08.559Z,54.90
2023-02-08T08:36:10.232Z,54.70
2023-02-08T08:38:11.832Z,54.80
2023-02-08T08:40:13.614Z,54.20
2023-02-08T08:42:15.290Z,53.90
2023-02-08T08:44:16.975Z,54.10
2023-02-08T08:46:18.714Z,53.80
2023-02-08T08:48:20.465Z,54.10
2023-02-08T08:50:22.166Z,54.10
2023-02-08T08:52:23.859Z,54.20
2023-02-08T08:54:25.581Z,54.00
2023-02-08T08:56:27.279Z,53.20
2023-02-08T08:58:29.254Z,53.20
2023-02-08T09:00:30.912Z,53.30
2023-02-08T09:02:32.704Z,53.20
2023-02-08T09:04:34.491Z,52.00
2023-02-08T09:06:36.200Z,52.30
2023-02-08T09:08:37.867Z,52.70
2023-02-08T09:10:39.597Z,52.70
2023-02-08T09:12:41.456Z,53.00
2023-02-08T09:14:44.814Z,53.00
2023-02-08T09:16:48.147Z,52.90
2023-02-08T09:18:50.068Z,52.80
2023-02-08T09:20:51.729Z,52.60
2023-02-08T09:22:53.708Z,52.70
2023-02-08T09:24:55.608Z,52.60
2023-02-08T09:26:57.211Z,53.00
2023-02-08T09:28:58.958Z,53.00
2023-02-08T09:31:07.326Z,53.00
2023-02-08T09:33:09.150Z,53.10
2023-02-08T09:35:13.246Z,52.80
2023-02-08T09:37:17.272Z,52.50
2023-02-08T09:39:23.697Z,52.90
2023-02-08T09:41:31.268Z,52.90
2023-02-08T09:43:45.254Z,52.00
2023-02-08T09:46:00.126Z,51.70
2023-02-08T09:48:09.913Z,51.50
2023-02-08T09:50:20.632Z,51.50
2023-02-08T09:52:24.844Z,51.70
2023-02-08T09:54:30.004Z,51.00
2023-02-08T09:56:36.944Z,51.50
2023-02-08T09:58:43.734Z,51.90
2023-02-08T10:00:46.808Z,51.70
2023-02-08T10:02:49.853Z,51.40
2023-02-08T10:04:56.704Z,51.40
2023-02-08T10:06:58.390Z,51.90
2023-02-08T10:09:02.722Z,51.50
2023-02-08T10:11:07.354Z,51.70
2023-02-08T10:13:20.540Z,51.00
2023-02-08T10:15:23.139Z,51.30
2023-02-08T10:17:43.322Z,51.50
2023-02-08T10:19:44.974Z,50.80
2023-02-08T10:21:52.612Z,50.90
2023-02-08T10:24:12.834Z,51.40
2023-02-08T10:26:24.966Z,51.40
2023-02-08T10:28:26.668Z,51.90
2023-02-08T10:30:40.663Z,51.70
2023-02-08T10:33:05.497Z,51.60
2023-02-08T10:35:14.702Z,51.40
2023-02-08T10:37:20.621Z,51.40
2023-02-08T10:39:25.872Z,51.50
2023-02-08T10:41:33.566Z,51.30
2023-02-08T10:43:35.436Z,51.30
2023-02-08T10:45:51.068Z,51.40
2023-02-08T10:47:58.295Z,51.50
2023-02-08T10:50:02.254Z,51.50
2023-02-08T10:52:04.126Z,51.60
2023-02-08T10:54:05.952Z,51.30
2023-02-08T10:56:16.510Z,51.30
2023-02-08T10:58:20.128Z,51.50
2023-02-08T11:00:25.156Z,51.60
2023-02-08T11:02:32.117Z,51.00
2023-02-08T11:04:33.893Z,50.50
2023-02-08T11:06:35.911Z,50.40
2023-02-08T11:08:53.489Z,50.50
2023-02-08T11:10:57.176Z,50.20
2023-02-08T11:13:00.123Z,50.80
2023-02-08T11:15:02.095Z,50.10
2023-02-08T11:17:03.769Z,49.60
2023-02-08T11:19:07.914Z,50.10
2023-02-08T11:21:20.747Z,50.90
2023-02-08T11:23:22.865Z,49.80
2023-02-08T11:25:38.529Z,49.60
2023-02-08T11:27:47.796Z,49.30
2023-02-08T11:30:09.417Z,49.00
2023-02-08T11:32:16.304Z,49.50
2023-02-08T11:34:23.694Z,49.40
2023-02-08T11:36:25.469Z,48.90
2023-02-08T11:38:28.193Z,49.60
2023-02-08T11:40:37.076Z,49.20
2023-02-08T11:42:41.870Z,48.00
2023-02-08T11:44:44.386Z,49.00
2023-02-08T11:46:48.235Z,49.10
2023-02-08T11:48:51.416Z,48.00
2023-02-08T11:50:54.480Z,48.60
2023-02-08T11:53:00.751Z,50.00
2023-02-08T11:55:15.101Z,49.70
2023-02-08T11:57:20.858Z,49.80
2023-02-08T11:59:23.858Z,49.20
2023-02-08T12:01:28.618Z,46.70
2023-02-08T12:03:33.581Z,48.20
2023-02-08T12:05:54.245Z,48.90
2023-02-08T12:07:59.552Z,48.30
2023-02-08T12:10:04.207Z,48.70
2023-02-08T12:12:05.885Z,48.80
2023-02-08T12:14:16.390Z,48.40
2023-02-08T12:16:44.471Z,48.70
2023-02-08T12:18:49.024Z,48.60
2023-02-08T12:21:00.964Z,48.80
2023-02-08T12:23:02.666Z,48.60
2023-02-08T12:25:19.460Z,48.50
2023-02-08T12:27:24.274Z,48.40
2023-02-08T12:29:47.625Z,48.70
2023-02-08T12:32:00.178Z,48.50
2023-02-08T12:34:08.678Z,48.60
2023-02-08T12:36:25.916Z,48.30
2023-02-08T12:39:18.627Z,48.40
2023-02-08T12:41:26.558Z,48.30
2023-02-08T12:43:34.333Z,48.10
2023-02-08T12:46:01.887Z,48.30
2023-02-08T12:48:15.933Z,48.40
2023-02-08T12:50:36.444Z,48.60
2023-02-08T12:52:45.600Z,48.10
2023-02-08T12:54:56.499Z,48.00
2023-02-08T12:57:02.460Z,48.30
2023-02-08T12:59:13.554Z,47.80
2023-02-08T13:01:26.013Z,47.90
2023-02-08T13:03:42.563Z,47.20
2023-02-08T13:06:01.807Z,47.60
2023-02-08T13:08:13.038Z,47.70
2023-02-08T13:10:28.720Z,48.10
2023-02-08T13:12:38.813Z,46.90
2023-02-08T13:14:45.033Z,47.20
2023-02-08T13:16:49.992Z,47.30
2023-02-08T13:19:05.732Z,47.20
2023-02-08T13:21:11.559Z,47.50
2023-02-08T13:23:18.128Z,46.90
2023-02-08T13:25:27.701Z,47.50
2023-02-08T13:27:29.326Z,47.50
2023-02-08T13:29:33.146Z,47.20
2023-02-08T13:31:39.297Z,47.20
2023-02-08T13:34:01.769Z,47.30
2023-02-08T13:36:04.132Z,47.70
2023-02-08T13:38:07.453Z,47.20
2023-02-08T13:40:09.188Z,45.80
2023-02-08T13:42:30.797Z,46.20
2023-02-08T13:44:36.810Z,46.70
2023-02-08T13:46:45.685Z,47.50
2023-02-08T13:48:49.042Z,46.70
2023-02-08T13:50:54.193Z,46.60
2023-02-08T13:52:56.130Z,46.70
2023-02-08T13:55:16.429Z,46.70
2023-02-08T13:57:36.841Z,47.00
2023-02-08T13:59:41.705Z,47.80
2023-02-08T14:02:03.408Z,46.30
2023-02-08T14:04:08.120Z,46.50
2023-02-08T14:06:19.978Z,47.00
2023-02-08T14:08:30.710Z,46.60
2023-02-08T14:10:37.532Z,46.70
2023-02-08T14:12:44.525Z,46.50
2023-02-08T14:15:04.300Z,46.30
2023-02-08T14:17:18.735Z,46.50
2023-02-08T14:19:24.572Z,45.70
2023-02-08T14:21:32.403Z,45.80
2023-02-08T14:23:38.299Z,45.70
2023-02-08T14:25:41.502Z,46.30
2023-02-08T14:27:49.573Z,45.30
2023-02-08T14:29:59.212Z,45.80
2023-02-08T14:32:01.025Z,45.80
2023-02-08T14:34:02.832Z,45.40
2023-02-08T14:36:06.268Z,45.40
2023-02-08T14:38:20.171Z,45.10
2023-02-08T14:40:24.724Z,45.80
2023-02-08T14:42:45.457Z,45.70
2023-02-08T14:44:55.616Z,45.70
2023-02-08T14:46:57.350Z,45.10
2023-02-08T14:49:00.173Z,44.90
2023-02-08T14:51:02.946Z,45.40
2023-02-08T14:53:13.469Z,45.30
2023-02-08T14:55:17.705Z,45.50
2023-02-08T14:57:27.983Z,45.50
2023-02-08T14:59:31.641Z,45.50
2023-02-08T15:01:46.776Z,45.30
2023-02-08T15:03:49.880Z,45.20
2023-02-08T15:06:03.530Z,46.30
2023-02-08T15:08:05.246Z,45.50
2023-02-08T15:10:11.809Z,45.80
2023-02-08T15:12:16.584Z,45.20
2023-02-08T15:14:19.626Z,44.50
2023-02-08T15:16:21.760Z,44.60
2023-02-08T15:18:25.331Z,44.60
2023-02-08T15:20:28.434Z,43.70
2023-02-08T15:22:32.167Z,44.00
2023-02-08T15:24:33.792Z,44.10
2023-02-08T15:26:35.447Z,44.00
2023-02-08T15:28:44.281Z,43.80
2023-02-08T15:30:52.629Z,43.80
2023-02-08T15:32:54.514Z,43.80
2023-02-08T15:34:58.163Z,43.30
2023-02-08T15:37:00.386Z,43.70
2023-02-08T15:39:16.521Z,44.00
2023-02-08T15:41:25.505Z,44.00
2023-02-08T15:43:27.181Z,43.60
2023-02-08T15:45:31.737Z,44.10
2023-02-08T15:47:35.983Z,43.80
2023-02-08T15:49:39.451Z,43.90
2023-02-08T15:51:41.392Z,44.00
2023-02-08T15:53:45.204Z,45.00
2023-02-08T15:55:48.771Z,44.70
2023-02-08T15:57:56.144Z,44.20
2023-02-08T15:59:57.977Z,44.80
2023-02-08T16:02:04.313Z,44.60
2023-02-08T16:04:08.192Z,44.80
2023-02-08T16:06:11.080Z,44.70
2023-02-08T16:08:18.355Z,44.70
2023-02-08T16:10:33.692Z,44.10
2023-02-08T16:12:35.888Z,44.40
2023-02-08T16:14:52.193Z,45.30
2023-02-08T16:16:56.361Z,45.20
2023-02-08T16:18:58.599Z,45.30
2023-02-08T16:21:01.505Z,45.30
2023-02-08T16:23:21.378Z,45.40
2023-02-08T16:25:24.403Z,45.40
2023-02-08T16:27:27.506Z,46.10
2023-02-08T16:29:31.490Z,45.20
2023-02-08T16:31:35.329Z,45.60
2023-02-08T16:33:39.546Z,45.60
2023-02-08T16:35:41.328Z,45.70
2023-02-08T16:37:43.013Z,45.80
2023-02-08T16:39:52.329Z,45.70
2023-02-08T16:42:12.966Z,45.70
2023-02-08T16:44:17.384Z,45.80
2023-02-08T16:46:25.189Z,46.50
2023-02-08T16:48:33.222Z,46.10
2023-02-08T16:50:35.005Z,45.70
2023-02-08T16:52:36.981Z,46.20
2023-02-08T16:54:38.679Z,46.40
2023-02-08T16:56:41.558Z,46.60
2023-02-08T16:58:43.311Z,46.60
2023-02-08T17:00:45.480Z,46.70
2023-02-08T17:02:47.682Z,46.80
2023-02-08T17:04:51.402Z,46.70
2023-02-08T17:06:53.313Z,46.40
2023-02-08T17:08:55.218Z,46.30
2023-02-08T17:10:58.967Z,46.50
2023-02-08T17:13:18.801Z,47.00
2023-02-08T17:15:23.996Z,47.10
2023-02-08T17:17:25.829Z,47.30
2023-02-08T17:19:27.578Z,47.30
2023-02-08T17:21:29.479Z,47.40
2023-02-08T17:23:31.125Z,47.60
2023-02-08T17:25:33.567Z,47.70
2023-02-08T17:27:35.293Z,47.80
2023-02-08T17:29:37.058Z,47.80
2023-02-08T17:31:39.197Z,48.00
2023-02-08T17:33:41.066Z,48.10
2023-02-08T17:35:43.058Z,48.30
2023-02-08T17:37:49.471Z,48.30
2023-02-08T17:39:51.234Z,48.30
2023-02-08T17:41:52.924Z,48.50
2023-02-08T17:43:55.951Z,48.70
2023-02-08T17:45:57.644Z,48.70
2023-02-08T17:47:59.981Z,48.70
2023-02-08T17:50:02.363Z,48.80
2023-02-08T17:52:04.173Z,48.80
2023-02-08T17:54:06.243Z,49.00
2023-02-08T17:56:10.218Z,49.20
2023-02-08T17:58:12.320Z,49.40
2023-02-08T18:00:19.022Z,49.40
2023-02-08T18:02:20.958Z,49.60
2023-02-08T18:04:22.650Z,49.60
2023-02-08T18:06:25.079Z,49.60
2023-02-08T18:08:27.712Z,49.70
2023-02-08T18:10:29.394Z,49.60
2023-02-08T18:12:31.399Z,49.80
2023-02-08T18:14:33.152Z,49.90
2023-02-08T18:16:36.051Z,50.00
2023-02-08T18:18:37.729Z,50.10
2023-02-08T18:20:43.173Z,50.10
2023-02-08T18:22:44.934Z,50.20
2023-02-08T18:24:48.203Z,50.30
2023-02-08T18:26:49.854Z,50.30
2023-02-08T18:28:52.238Z,50.40
2023-02-08T18:31:00.431Z,50.50
2023-02-08T18:33:02.279Z,50.50
2023-02-08T18:35:04.991Z,50.50
2023-02-08T18:37:06.745Z,50.70
2023-02-08T18:39:08.554Z,50.80
2023-02-08T18:41:11.032Z,50.80
2023-02-08T18:43:13.020Z,50.90
2023-02-08T18:45:14.761Z,51.10
2023-02-08T18:47:16.438Z,51.10
2023-02-08T18:49:18.146Z,51.20
2023-02-08T18:51:20.604Z,51.20
2023-02-08T18:53:23.741Z,51.10
2023-02-08T18:55:25.472Z,51.40
2023-02-08T18:57:27.148Z,51.50
2023-02-08T18:59:29.027Z,51.40
2023-02-08T19:01:30.893Z,51.40
2023-02-08T19:03:32.688Z,51.30
2023-02-08T19:05:36.865Z,51.50
2023-02-08T19:07:40.059Z,51.40
2023-02-08T19:09:43.719Z,51.40
2023-02-08T19:11:45.636Z,51.60
2023-02-08T19:13:47.526Z,51.50
2023-02-08T19:15:49.426Z,51.50
2023-02-08T19:17:51.202Z,51.50
2023-02-08T19:19:52.970Z,51.50
2023-02-08T19:21:54.699Z,51.40
2023-02-08T19:23:58.250Z,51.30
2023-02-08T19:26:03.689Z,51.20
2023-02-08T19:28:06.346Z,51.20
2023-02-08T19:30:08.600Z,51.20
2023-02-08T19:32:10.478Z,51.00
2023-02-08T19:34:12.867Z,51.00
2023-02-08T19:36:16.713Z,51.20
2023-02-08T19:38:18.858Z,51.10
2023-02-08T19:40:20.885Z,51.20
2023-02-08T19:42:22.564Z,51.20
2023-02-08T19:44:24.614Z,51.30
2023-02-08T19:46:27.934Z,51.50
2023-02-08T19:48:29.746Z,51.60
2023-02-08T19:50:31.501Z,51.60
2023-02-08T19:52:33.235Z,51.60
2023-02-08T19:54:35.007Z,51.50
2023-02-08T19:56:36.864Z,51.60
2023-02-08T19:58:38.933Z,51.70
2023-02-08T20:00:40.767Z,51.70
2023-02-08T20:02:42.587Z,51.60
2023-02-08T20:04:44.408Z,51.60
2023-02-08T20:06:46.246Z,51.50
2023-02-08T20:08:49.160Z,51.40
2023-02-08T20:10:50.988Z,51.60
2023-02-08T20:12:52.683Z,51.60
2023-02-08T20:14:54.482Z,51.60
2023-02-08T20:16:56.714Z,51.60
2023-02-08T20:19:02.748Z,51.60
2023-02-08T20:21:05.771Z,51.50
2023-02-08T20:23:21.800Z,51.70
2023-02-08T20:25:24.600Z,51.80
2023-02-08T20:27:32.066Z,51.70
2023-02-08T20:29:33.856Z,51.60
2023-02-08T20:31:36.467Z,51.60
2023-02-08T20:33:38.610Z,51.70
2023-02-08T20:35:40.352Z,51.70
2023-02-08T20:37:42.479Z,51.70
2023-02-08T20:39:44.239Z,51.70
2023-02-08T20:41:47.479Z,51.80
2023-02-08T20:43:49.541Z,51.80
2023-02-08T20:45:51.222Z,51.50
2023-02-08T20:47:53.025Z,51.60
2023-02-08T20:49:54.711Z,51.50
2023-02-08T20:51:56.394Z,51.50
2023-02-08T20:54:00.001Z,51.30
2023-02-08T20:56:06.143Z,51.40
2023-02-08T20:58:08.099Z,51.40
2023-02-08T21:00:10.315Z,51.40
2023-02-08T21:02:19.280Z,51.50
2023-02-08T21:04:23.391Z,51.60
2023-02-08T21:06:26.626Z,51.50
2023-02-08T21:08:28.406Z,51.60
2023-02-08T21:10:30.147Z,51.50
2023-02-08T21:12:33.406Z,51.40
2023-02-08T21:14:35.293Z,51.50
2023-02-08T21:16:37.115Z,51.40
2023-02-08T21:18:39.198Z,51.20
2023-02-08T21:20:40.938Z,51.20
2023-02-08T21:22:42.764Z,51.20
2023-02-08T21:24:44.521Z,51.40
2023-02-08T21:26:46.541Z,51.40
2023-02-08T21:28:51.859Z,51.50
2023-02-08T21:30:57.117Z,51.50
2023-02-08T21:32:58.950Z,51.30
2023-02-08T21:35:00.751Z,51.40
2023-02-08T21:37:02.495Z,51.50
2023-02-08T21:39:04.223Z,51.50
2023-02-08T21:41:07.140Z,51.40
2023-02-08T21:43:08.886Z,51.30
2023-02-08T21:45:10.664Z,51.10
2023-02-08T21:47:12.438Z,51.20
2023-02-08T21:49:32.916Z,51.20
2023-02-08T21:52:00.759Z,51.20
2023-02-08T21:54:21.110Z,51.20
2023-02-08T21:56:22.825Z,51.30
2023-02-08T21:58:24.581Z,51.10
2023-02-08T22:00:26.280Z,51.10
2023-02-08T22:02:29.170Z,50.90
2023-02-08T22:04:31.054Z,50.70
2023-02-08T22:06:32.787Z,50.90
2023-02-08T22:08:34.674Z,50.80
2023-02-08T22:10:36.312Z,51.10
2023-02-08T22:12:40.253Z,51.10
2023-02-08T22:14:42.466Z,51.20
2023-02-08T22:16:44.241Z,51.00
2023-02-08T22:18:45.934Z,51.00
2023-02-08T22:20:50.619Z,51.10
2023-02-08T22:22:55.053Z,51.10
2023-02-08T22:24:57.043Z,51.20
2023-02-08T22:26:58.752Z,51.30
2023-02-08T22:29:01.467Z,51.20
2023-02-08T22:31:03.856Z,51.00
2023-02-08T22:33:05.622Z,50.90
2023-02-08T22:35:07.890Z,51.10
2023-02-08T22:37:09.563Z,50.90
2023-02-08T22:39:11.460Z,51.10
2023-02-08T22:41:13.871Z,50.90
2023-02-08T22:43:15.600Z,51.00
2023-02-08T22:45:17.261Z,50.90
2023-02-08T22:47:18.935Z,51.00
2023-02-08T22:49:20.549Z,51.00
2023-02-08T22:51:23.539Z,50.60
2023-02-08T22:53:25.357Z,50.60
2023-02-08T22:55:27.010Z,50.20
2023-02-08T22:57:28.971Z,50.30
2023-02-08T22:59:30.687Z,50.40
2023-02-08T23:01:32.366Z,50.60
2023-02-08T23:03:34.027Z,50.60
2023-02-08T23:05:39.720Z,50.50
2023-02-08T23:07:41.399Z,50.60
2023-02-08T23:09:43.085Z,50.40
2023-02-08T23:11:44.768Z,50.30
2023-02-08T23:13:46.458Z,50.60
2023-02-08T23:15:48.112Z,50.30
2023-02-08T23:17:49.778Z,50.50
2023-02-08T23:19:52.566Z,50.40
2023-02-08T23:21:57.262Z,50.60
2023-02-08T23:23:58.903Z,50.80
2023-02-08T23:26:03.478Z,50.70
2023-02-08T23:28:05.888Z,50.90
2023-02-08T23:30:09.657Z,51.00
2023-02-08T23:32:11.575Z,51.10
2023-02-08T23:34:13.248Z,51.10
2023-02-08T23:36:16.317Z,51.10
2023-02-08T23:38:17.985Z,51.20
2023-02-08T23:40:19.832Z,51.00
2023-02-08T23:42:27.611Z,50.90
2023-02-08T23:44:29.221Z,50.80
2023-02-08T23:46:31.098Z,50.90
2023-02-08T23:48:32.718Z,50.70
2023-02-08T23:50:34.510Z,50.50
2023-02-08T23:52:36.469Z,50.20
2023-02-08T23:54:38.079Z,50.50
2023-02-08T23:56:40.723Z,50.70
2023-02-08T23:58:43.310Z,50.70
